Time;durP1;ratioP1;P1;durP2;ratioP2;P2;SDS_P1;SDS_P2;PMS_P1;PMS_P2;Temp;Humidity;BMP_temperature;BMP_pressure;BME280_temperature;BME280_humidity;BME280_pressure;Samples;Min_cycle;Max_cycle;Signal;HPM_P1;HPM_P2
2021/09/21 00:01:10;;;;;;;12.00;10.77;;;12.50;99.90;;;;;;4840626;29;21202;-93
2021/09/21 00:03:36;;;;;;;12.73;10.33;;;12.60;99.90;;;;;;4843704;29;20451;-93
2021/09/21 00:06:04;;;;;;;12.20;10.70;;;12.60;99.90;;;;;;4842290;29;20500;-93
2021/09/21 00:08:31;;;;;;;12.63;10.90;;;12.50;99.90;;;;;;4845192;29;20474;-92
2021/09/21 00:10:59;;;;;;;13.07;10.87;;;12.50;99.90;;;;;;4841560;29;20810;-92
2021/09/21 00:13:25;;;;;;;11.43;10.30;;;12.50;99.90;;;;;;4842142;29;20461;-89
2021/09/21 00:15:51;;;;;;;13.70;11.60;;;12.50;99.90;;;;;;4843233;29;20506;-91
2021/09/21 00:18:19;;;;;;;11.50;10.30;;;12.50;99.90;;;;;;4840519;29;20463;-91
2021/09/21 00:20:45;;;;;;;11.90;10.60;;;12.50;99.90;;;;;;4844133;29;20601;-90
2021/09/21 00:23:11;;;;;;;11.57;10.17;;;12.50;99.90;;;;;;4842131;29;20473;-91
2021/09/21 00:25:37;;;;;;;12.43;10.27;;;12.50;99.90;;;;;;4844724;29;20534;-91
2021/09/21 00:28:03;;;;;;;12.10;10.20;;;12.50;99.90;;;;;;4844706;29;20222;-91
2021/09/21 00:30:29;;;;;;;12.60;9.97;;;12.60;99.90;;;;;;4851702;29;20194;-94
2021/09/21 00:33:02;;;;;;;11.80;10.60;;;12.60;99.90;;;;;;4849386;29;20455;-94
2021/09/21 00:35:32;;;;;;;12.83;10.37;;;12.70;99.90;;;;;;4864155;29;20467;-93
2021/09/21 00:38:00;;;;;;;11.47;10.37;;;12.70;99.90;;;;;;4842728;29;20467;-91
2021/09/21 00:40:26;;;;;;;11.27;10.17;;;12.70;99.90;;;;;;4845371;29;20502;-92
2021/09/21 00:43:00;;;;;;;12.20;11.00;;;12.70;99.90;;;;;;4843587;29;20464;-91
2021/09/21 00:45:28;;;;;;;11.53;10.33;;;12.70;99.90;;;;;;4848708;29;20443;-92
2021/09/21 00:47:55;;;;;;;10.60;9.50;;;12.70;99.90;;;;;;4842439;29;20486;-93
2021/09/21 00:50:24;;;;;;;10.70;9.70;;;12.60;99.90;;;;;;4845250;29;20458;-92
2021/09/21 00:52:51;;;;;;;11.60;10.17;;;12.50;99.90;;;;;;4843880;29;20214;-91
2021/09/21 00:55:17;;;;;;;11.90;10.70;;;12.50;99.90;;;;;;4844062;29;20459;-92
2021/09/21 00:57:45;;;;;;;11.13;10.03;;;12.60;99.90;;;;;;4845587;29;20535;-93
2021/09/21 01:00:16;;;;;;;13.03;11.63;;;12.60;99.90;;;;;;4844088;29;20448;-92
2021/09/21 01:02:42;;;;;;;11.90;10.73;;;12.60;99.90;;;;;;4843522;29;20476;-92
2021/09/21 01:05:08;;;;;;;13.73;10.50;;;12.60;99.90;;;;;;4844267;29;20455;-92
2021/09/21 01:07:39;;;;;;;12.37;11.17;;;12.60;99.90;;;;;;4847324;29;20849;-92
2021/09/21 01:10:12;;;;;;;12.30;11.00;;;12.50;99.90;;;;;;4850946;29;20455;-91
2021/09/21 01:12:38;;;;;;;15.10;10.70;;;12.50;99.90;;;;;;4858777;29;20455;-91
2021/09/21 01:15:06;;;;;;;11.73;10.27;;;12.60;99.90;;;;;;4842280;29;20481;-91
2021/09/21 01:17:32;;;;;;;12.80;10.57;;;12.60;99.90;;;;;;4847318;29;20450;-91
2021/09/21 01:19:58;;;;;;;11.10;10.00;;;12.60;99.90;;;;;;4844374;29;20447;-92
2021/09/21 01:22:24;;;;;;;12.30;11.03;;;12.70;99.90;;;;;;4843597;29;20521;-91
2021/09/21 01:24:50;;;;;;;11.27;10.17;;;12.70;99.90;;;;;;4845693;29;20958;-90
2021/09/21 01:27:16;;;;;;;11.27;10.17;;;12.60;99.90;;;;;;4844932;29;20554;-90
2021/09/21 01:29:42;;;;;;;10.87;9.70;;;12.60;99.90;;;;;;4841310;29;20550;-91
2021/09/21 01:32:08;;;;;;;12.60;10.93;;;12.60;99.90;;;;;;4839769;29;20958;-92
2021/09/21 01:34:35;;;;;;;13.83;9.80;;;12.60;99.90;;;;;;4837005;29;20206;-90
2021/09/21 01:37:01;;;;;;;11.40;10.20;;;12.60;99.90;;;;;;4855377;29;20340;-91
2021/09/21 01:39:27;;;;;;;11.30;10.20;;;12.60;99.90;;;;;;4843252;29;20462;-91
2021/09/21 01:41:52;;;;;;;11.13;10.03;;;12.50;99.90;;;;;;4841154;29;20508;-90
2021/09/21 01:44:18;;;;;;;11.37;10.23;;;12.60;99.90;;;;;;4846175;29;20527;-90
2021/09/21 01:46:49;;;;;;;11.57;10.37;;;12.50;99.90;;;;;;4844930;29;20212;-89
2021/09/21 01:49:16;;;;;;;10.73;9.63;;;12.50;99.90;;;;;;4857900;29;20450;-91
2021/09/21 01:52:11;;;;;;;13.13;11.20;;;12.50;99.90;;;;;;4844046;29;21011;-91
2021/09/21 01:55:12;;;;;;;11.43;10.23;;;12.50;99.90;;;;;;4847449;29;20456;-91
2021/09/21 02:00:03;;;;;;;11.27;10.07;;;12.50;99.90;;;;;;4850036;29;20541;-92
2021/09/21 02:02:28;;;;;;;11.87;9.27;;;12.60;99.90;;;;;;4845921;29;20515;-93
2021/09/21 02:04:54;;;;;;;10.33;9.33;;;12.70;99.90;;;;;;4845678;29;21021;-92
2021/09/21 02:07:20;;;;;;;11.40;9.60;;;12.80;99.90;;;;;;4843102;29;20282;-92
2021/09/21 02:09:45;;;;;;;11.67;10.47;;;12.80;99.90;;;;;;4838779;29;20301;-92
2021/09/21 02:12:11;;;;;;;11.13;10.03;;;12.90;99.90;;;;;;4843647;29;20217;-92
2021/09/21 02:14:37;;;;;;;10.73;9.60;;;12.90;99.90;;;;;;4844641;29;20199;-93
2021/09/21 02:17:03;;;;;;;10.97;9.97;;;12.90;99.90;;;;;;4844573;29;20198;-93
2021/09/21 02:19:29;;;;;;;10.70;9.70;;;12.90;99.90;;;;;;4843126;29;20259;-94
2021/09/21 02:21:54;;;;;;;11.30;9.63;;;12.90;99.90;;;;;;4844816;29;20471;-93
2021/09/21 02:24:22;;;;;;;11.30;10.10;;;12.90;99.90;;;;;;4843731;29;20195;-92
2021/09/21 02:26:48;;;;;;;11.77;10.57;;;12.90;99.90;;;;;;4843186;29;20246;-92
2021/09/21 02:29:14;;;;;;;10.53;9.43;;;12.80;99.90;;;;;;4842887;29;20571;-93
2021/09/21 02:31:40;;;;;;;10.50;9.50;;;12.80;99.90;;;;;;4842533;29;20538;-91
2021/09/21 02:34:05;;;;;;;12.40;9.83;;;12.70;99.90;;;;;;4856943;29;20218;-90
2021/09/21 02:36:31;;;;;;;10.83;9.73;;;12.60;99.90;;;;;;4839990;29;20211;-91
2021/09/21 02:38:57;;;;;;;9.97;9.00;;;12.60;99.90;;;;;;4843294;29;20918;-91
2021/09/21 02:41:23;;;;;;;11.33;9.63;;;12.60;99.90;;;;;;4841351;29;20190;-91
2021/09/21 02:43:48;;;;;;;11.70;10.50;;;12.60;99.90;;;;;;4843106;29;20262;-92
2021/09/21 02:46:14;;;;;;;12.63;11.30;;;12.60;99.90;;;;;;4842168;29;20908;-91
2021/09/21 02:48:40;;;;;;;11.63;10.43;;;12.50;99.90;;;;;;4840908;29;20207;-91
2021/09/21 02:51:10;;;;;;;11.13;9.97;;;12.50;99.90;;;;;;4843513;29;20487;-91
2021/09/21 02:53:38;;;;;;;12.43;11.03;;;12.50;99.90;;;;;;4857657;29;20448;-90
2021/09/21 02:56:16;;;;;;;11.53;10.43;;;12.60;99.90;;;;;;4841323;29;20464;-91
2021/09/21 02:58:42;;;;;;;11.60;10.43;;;12.60;99.90;;;;;;4840789;29;20463;-90
2021/09/21 03:01:09;;;;;;;12.00;10.33;;;12.60;99.90;;;;;;4839531;29;20207;-91
2021/09/21 03:03:53;;;;;;;12.40;11.30;;;12.50;99.90;;;;;;4845291;29;20488;-92
2021/09/21 03:06:30;;;;;;;12.10;10.20;;;12.60;99.90;;;;;;4845713;29;20514;-92
2021/09/21 03:09:06;;;;;;;11.47;10.20;;;12.60;99.90;;;;;;4842857;29;20836;-91
2021/09/21 03:11:41;;;;;;;12.23;10.70;;;12.60;99.90;;;;;;4848033;29;20502;-89
2021/09/21 03:19:24;;;;;;;11.47;10.27;;;12.60;99.90;;;;;;4842946;29;20507;-91
2021/09/21 03:21:53;;;;;;;13.60;9.90;;;12.60;99.90;;;;;;4844685;29;20471;-91
2021/09/21 03:24:19;;;;;;;12.00;10.60;;;12.70;99.90;;;;;;4842510;29;20443;-91
2021/09/21 03:26:45;;;;;;;13.30;10.13;;;12.70;99.90;;;;;;4842329;29;20481;-90
2021/09/21 03:29:11;;;;;;;11.97;10.40;;;12.70;99.90;;;;;;4851747;29;20203;-90
2021/09/21 03:31:36;;;;;;;11.50;10.17;;;12.70;99.90;;;;;;4843830;29;20470;-92
2021/09/21 03:34:02;;;;;;;12.70;10.37;;;12.70;99.90;;;;;;4843674;29;20206;-91
2021/09/21 03:36:28;;;;;;;13.17;11.30;;;12.70;99.90;;;;;;4837686;29;20201;-92
2021/09/21 03:38:56;;;;;;;11.73;10.33;;;12.60;99.90;;;;;;4842263;29;20259;-91
2021/09/21 03:41:22;;;;;;;13.07;10.70;;;12.60;99.90;;;;;;4846630;29;20668;-90
2021/09/21 03:43:48;;;;;;;10.57;9.57;;;12.50;99.90;;;;;;4840818;29;20806;-91
2021/09/21 03:46:14;;;;;;;12.07;10.83;;;12.60;99.90;;;;;;4841941;29;20202;-90
2021/09/21 03:48:40;;;;;;;13.67;10.50;;;12.60;99.90;;;;;;4835428;29;20462;-90
2021/09/21 03:51:06;;;;;;;11.67;10.47;;;12.60;99.90;;;;;;4838522;29;20458;-91
2021/09/21 03:53:37;;;;;;;11.87;10.70;;;12.60;99.90;;;;;;4836668;29;20198;-91
2021/09/21 03:56:03;;;;;;;11.87;10.50;;;12.70;99.90;;;;;;4834887;29;20191;-90
2021/09/21 03:58:28;;;;;;;11.70;10.50;;;12.70;99.90;;;;;;4841082;29;20458;-90
2021/09/21 04:00:54;;;;;;;11.70;10.60;;;12.70;99.90;;;;;;4839030;29;20554;-92
2021/09/21 04:03:20;;;;;;;12.27;11.00;;;12.70;99.90;;;;;;4841816;29;20202;-90
2021/09/21 04:05:45;;;;;;;11.93;10.77;;;12.70;99.90;;;;;;4840094;29;20198;-91
2021/09/21 04:08:11;;;;;;;12.87;11.43;;;12.70;99.90;;;;;;4842917;29;20369;-90
2021/09/21 04:10:37;;;;;;;12.10;10.90;;;12.70;99.90;;;;;;4838346;29;20284;-90
2021/09/21 04:13:05;;;;;;;12.40;11.10;;;12.70;99.90;;;;;;4841343;29;20198;-89
2021/09/21 04:15:31;;;;;;;12.17;10.97;;;12.60;99.90;;;;;;4841262;29;20839;-92
2021/09/21 04:18:08;;;;;;;13.00;11.70;;;12.70;99.90;;;;;;4839258;29;20468;-94
2021/09/21 04:20:37;;;;;;;12.17;11.03;;;12.70;99.90;;;;;;4842283;29;20221;-91
2021/09/21 04:23:14;;;;;;;11.40;10.30;;;12.70;99.90;;;;;;4838078;29;20470;-90
2021/09/21 04:25:39;;;;;;;13.60;11.33;;;12.70;99.90;;;;;;4842537;29;20447;-93
2021/09/21 04:28:30;;;;;;;13.07;11.50;;;12.60;99.90;;;;;;4858378;29;20493;-93
2021/09/21 04:30:58;;;;;;;12.47;11.17;;;12.40;99.90;;;;;;4842905;29;20203;-95
2021/09/21 04:33:23;;;;;;;13.40;11.07;;;12.30;99.90;;;;;;4847491;29;20462;-95
2021/09/21 04:35:52;;;;;;;10.83;9.73;;;12.30;99.90;;;;;;4844145;29;20960;-95
2021/09/21 04:38:18;;;;;;;11.03;9.57;;;12.30;99.90;;;;;;4843949;29;20202;-95
2021/09/21 04:41:03;;;;;;;12.10;10.10;;;12.40;99.90;;;;;;4844143;29;20451;-93
2021/09/21 04:43:44;;;;;;;12.63;11.30;;;12.40;99.90;;;;;;4849738;29;20459;-93
2021/09/21 04:46:22;;;;;;;13.40;11.43;;;12.40;99.90;;;;;;4852140;29;20443;-95
2021/09/21 04:48:48;;;;;;;13.73;12.23;;;12.40;99.90;;;;;;4846400;29;20473;-96
2021/09/21 04:51:14;;;;;;;13.20;10.80;;;12.40;99.90;;;;;;4848862;29;20443;-95
2021/09/21 04:53:42;;;;;;;12.10;10.90;;;12.30;99.90;;;;;;4860407;29;20202;-95
2021/09/21 04:56:08;;;;;;;11.97;10.77;;;12.30;99.90;;;;;;4845217;29;20202;-95
2021/09/21 04:58:37;;;;;;;12.27;11.07;;;12.40;99.90;;;;;;4859011;29;21765;-93
2021/09/21 05:04:15;;;;;;;12.73;10.70;;;12.40;99.90;;;;;;4847346;29;20834;-95
2021/09/21 05:06:47;;;;;;;11.97;10.77;;;12.40;99.90;;;;;;4847281;29;20507;-95
2021/09/21 05:09:59;;;;;;;14.27;10.80;;;12.40;99.90;;;;;;4851825;29;20467;-95
2021/09/21 05:15:12;;;;;;;13.07;11.90;;;12.50;99.90;;;;;;4847146;29;20462;-95
2021/09/21 05:17:50;;;;;;;11.57;10.43;;;12.50;99.90;;;;;;4847148;29;20463;-95
2021/09/21 05:20:20;;;;;;;10.87;9.77;;;12.60;99.90;;;;;;4849344;29;21004;-94
2021/09/21 05:22:50;;;;;;;10.47;9.40;;;12.60;99.90;;;;;;4846722;29;20235;-93
2021/09/21 05:25:16;;;;;;;10.67;9.57;;;12.70;99.90;;;;;;4846514;29;20455;-93
2021/09/21 05:27:42;;;;;;;11.13;10.03;;;12.60;99.90;;;;;;4848086;29;20588;-93
2021/09/21 05:33:18;;;;;;;11.70;9.90;;;12.50;99.90;;;;;;4849194;29;20515;-94
2021/09/21 05:36:10;;;;;;;11.23;10.00;;;12.50;99.90;;;;;;4847994;29;20472;-94
2021/09/21 05:38:39;;;;;;;11.80;10.47;;;12.50;99.90;;;;;;4848167;29;20838;-95
2021/09/21 05:41:04;;;;;;;13.27;10.67;;;12.40;99.90;;;;;;4850706;29;20462;-90
2021/09/21 05:43:33;;;;;;;11.70;10.20;;;12.30;99.90;;;;;;4845209;29;20203;-92
2021/09/21 05:45:59;;;;;;;11.53;9.93;;;12.30;99.90;;;;;;4843855;29;20210;-87
2021/09/21 05:48:25;;;;;;;10.33;9.30;;;12.30;99.90;;;;;;4846232;29;20486;-90
2021/09/21 05:50:53;;;;;;;10.93;9.63;;;12.30;99.90;;;;;;4844163;29;20455;-90
2021/09/21 05:53:19;;;;;;;11.83;10.63;;;12.40;99.90;;;;;;4843813;29;20213;-89
2021/09/21 05:55:45;;;;;;;12.00;9.57;;;12.30;99.90;;;;;;4843494;29;20447;-88
2021/09/21 05:58:13;;;;;;;10.40;9.40;;;12.30;99.90;;;;;;4842479;29;20194;-88
2021/09/21 06:00:39;;;;;;;13.40;10.40;;;12.30;99.90;;;;;;4844196;29;20843;-92
2021/09/21 06:03:04;;;;;;;10.90;9.80;;;12.40;99.90;;;;;;4842815;29;20443;-90
2021/09/21 06:05:33;;;;;;;11.13;9.93;;;12.40;99.90;;;;;;4845056;29;20218;-89
2021/09/21 06:08:01;;;;;;;11.57;10.37;;;12.30;99.90;;;;;;4843083;29;20219;-90
2021/09/21 06:10:29;;;;;;;10.57;9.17;;;12.30;99.90;;;;;;4842856;29;20463;-91
2021/09/21 06:12:55;;;;;;;10.60;9.60;;;12.40;99.90;;;;;;4846039;29;20462;-91
2021/09/21 06:15:21;;;;;;;9.10;8.20;;;12.30;99.90;;;;;;4857949;29;20195;-92
2021/09/21 06:17:48;;;;;;;10.00;9.10;;;12.40;99.90;;;;;;4842907;29;20478;-93
2021/09/21 06:20:16;;;;;;;10.00;8.93;;;12.50;99.90;;;;;;4846347;29;20210;-91
2021/09/21 06:22:44;;;;;;;10.13;9.20;;;12.50;99.90;;;;;;4844764;29;20462;-92
2021/09/21 06:25:11;;;;;;;10.90;9.80;;;12.50;99.90;;;;;;4845899;29;20565;-91
2021/09/21 06:27:37;;;;;;;10.03;9.13;;;12.50;99.90;;;;;;4849238;29;20858;-89
2021/09/21 06:30:09;;;;;;;10.20;9.27;;;12.50;99.90;;;;;;4853254;29;20451;-91
2021/09/21 06:32:35;;;;;;;10.70;9.67;;;12.50;99.90;;;;;;4845983;29;20463;-91
2021/09/21 06:35:02;;;;;;;11.17;10.17;;;12.50;99.90;;;;;;4844272;29;20503;-89
2021/09/21 06:37:28;;;;;;;10.57;9.47;;;12.60;99.90;;;;;;4858615;29;20456;-92
2021/09/21 06:39:53;;;;;;;10.80;9.67;;;12.60;99.90;;;;;;4838062;29;20531;-91
2021/09/21 06:42:23;;;;;;;10.83;9.83;;;12.70;99.90;;;;;;4840975;29;20222;-90
2021/09/21 06:44:49;;;;;;;10.57;9.07;;;12.70;99.90;;;;;;4844525;29;20305;-91
2021/09/21 06:47:17;;;;;;;10.63;9.53;;;12.70;99.90;;;;;;4843737;29;20567;-90
2021/09/21 06:49:46;;;;;;;11.20;10.10;;;12.80;99.90;;;;;;4846843;29;20197;-90
2021/09/21 06:52:18;;;;;;;10.57;9.57;;;12.80;99.90;;;;;;4836857;29;20876;-91
2021/09/21 06:54:45;;;;;;;10.90;9.93;;;12.90;99.90;;;;;;4842269;29;20444;-91
2021/09/21 06:57:14;;;;;;;11.30;10.20;;;13.00;99.90;;;;;;4844020;29;20456;-90
2021/09/21 06:59:43;;;;;;;10.63;9.53;;;13.10;99.90;;;;;;4844374;29;21150;-90
2021/09/21 07:02:09;;;;;;;11.00;10.00;;;13.10;99.90;;;;;;4839023;29;20209;-90
2021/09/21 07:04:35;;;;;;;9.50;8.50;;;13.10;99.90;;;;;;4844816;29;20448;-90
2021/09/21 07:07:04;;;;;;;9.97;9.03;;;13.10;99.90;;;;;;4841159;29;20753;-91
2021/09/21 07:09:30;;;;;;;9.93;9.00;;;13.20;99.90;;;;;;4842538;29;20463;-90
2021/09/21 07:12:03;;;;;;;10.90;9.90;;;13.30;99.90;;;;;;4844809;29;20534;-90
2021/09/21 07:14:29;;;;;;;11.13;10.03;;;13.40;99.90;;;;;;4845842;29;20557;-95
2021/09/21 07:16:55;;;;;;;12.70;9.53;;;13.60;99.90;;;;;;4845164;29;20277;-92
2021/09/21 07:19:20;;;;;;;10.10;9.10;;;13.70;99.90;;;;;;4845674;29;20190;-91
2021/09/21 07:21:47;;;;;;;10.20;9.20;;;13.80;99.90;;;;;;4843448;29;20202;-93
2021/09/21 07:24:15;;;;;;;9.30;8.40;;;13.90;99.90;;;;;;4842025;29;20207;-92
2021/09/21 07:26:41;;;;;;;9.90;8.90;;;14.00;99.90;;;;;;4844303;29;20546;-91
2021/09/21 07:29:07;;;;;;;9.67;8.73;;;14.10;99.90;;;;;;4843315;29;20482;-91
2021/09/21 07:31:33;;;;;;;10.10;9.10;;;14.20;99.90;;;;;;4846319;29;20435;-89
2021/09/21 07:33:59;;;;;;;9.60;8.60;;;14.20;99.90;;;;;;4857378;29;20517;-91
2021/09/21 07:36:24;;;;;;;9.10;8.20;;;14.40;99.90;;;;;;4841867;29;20451;-95
2021/09/21 07:38:50;;;;;;;9.10;8.20;;;14.70;99.90;;;;;;4844177;29;20210;-90
2021/09/21 07:41:16;;;;;;;10.83;8.93;;;14.80;99.90;;;;;;4845716;29;20534;-90
2021/09/21 07:43:44;;;;;;;7.93;7.23;;;15.10;99.90;;;;;;4841372;29;20278;-90
2021/09/21 07:46:10;;;;;;;9.17;8.37;;;15.10;99.90;;;;;;4840574;29;20186;-90
2021/09/21 07:48:36;;;;;;;7.70;7.00;;;15.10;99.90;;;;;;4845122;29;20529;-91
2021/09/21 07:51:05;;;;;;;7.77;6.93;;;15.30;99.90;;;;;;4843235;29;20491;-91
2021/09/21 07:53:38;;;;;;;7.63;6.90;;;15.50;99.90;;;;;;4844548;29;20732;-89
2021/09/21 07:56:04;;;;;;;7.33;6.73;;;15.60;99.90;;;;;;4844111;29;20514;-89
2021/09/21 07:58:30;;;;;;;7.90;6.80;;;15.80;99.90;;;;;;4850887;29;20455;-92
2021/09/21 08:00:55;;;;;;;7.10;6.50;;;15.70;99.90;;;;;;4845877;29;20578;-90
2021/09/21 08:03:22;;;;;;;7.20;6.70;;;15.60;99.90;;;;;;4844960;29;20563;-89
2021/09/21 08:05:48;;;;;;;8.40;7.60;;;15.80;99.90;;;;;;4843433;29;20273;-92
2021/09/21 08:08:19;;;;;;;7.57;6.90;;;16.10;99.50;;;;;;4843668;29;20486;-92
2021/09/21 08:10:45;;;;;;;6.67;6.17;;;16.30;98.20;;;;;;4841707;29;20450;-90
2021/09/21 08:13:11;;;;;;;6.60;6.07;;;16.30;97.50;;;;;;4839485;29;20447;-92
2021/09/21 08:15:37;;;;;;;7.27;6.57;;;16.50;97.80;;;;;;4840313;29;20474;-91
2021/09/21 08:18:03;;;;;;;6.70;6.20;;;16.90;96.80;;;;;;4841711;29;20462;-91
2021/09/21 08:20:29;;;;;;;7.73;7.03;;;17.00;96.90;;;;;;4853665;29;20195;-90
2021/09/21 08:22:55;;;;;;;7.53;6.93;;;17.00;96.70;;;;;;4848051;29;20591;-91
2021/09/21 08:25:21;;;;;;;8.30;7.47;;;17.30;96.30;;;;;;4844140;29;20293;-92
2021/09/21 08:27:47;;;;;;;7.97;6.97;;;17.30;95.80;;;;;;4839959;29;20519;-89
2021/09/21 08:30:13;;;;;;;8.07;7.37;;;17.20;96.20;;;;;;4837340;29;20499;-91
2021/09/21 08:32:59;;;;;;;6.83;5.70;;;17.60;94.40;;;;;;4844561;29;20262;-93
2021/09/21 08:35:25;;;;;;;7.30;6.60;;;17.50;95.20;;;;;;4843775;29;21039;-92
2021/09/21 08:37:51;;;;;;;7.07;6.30;;;17.00;96.30;;;;;;4861762;29;20511;-89
2021/09/21 08:40:17;;;;;;;7.13;6.43;;;17.00;96.30;;;;;;4843094;29;20447;-90
2021/09/21 08:42:43;;;;;;;6.83;6.33;;;17.10;95.00;;;;;;4843749;29;20202;-90
2021/09/21 08:45:09;;;;;;;6.30;5.80;;;16.80;95.90;;;;;;4839494;29;20312;-92
2021/09/21 08:47:37;;;;;;;7.87;7.07;;;16.60;95.70;;;;;;4844907;29;20487;-91
2021/09/21 08:50:04;;;;;;;6.80;6.30;;;16.50;96.10;;;;;;4840852;29;20448;-89
2021/09/21 08:52:33;;;;;;;7.13;6.53;;;16.60;96.20;;;;;;4845445;29;20953;-92
2021/09/21 08:55:00;;;;;;;6.70;6.20;;;16.60;95.80;;;;;;4846843;29;20448;-90
2021/09/21 08:57:28;;;;;;;7.80;7.20;;;16.40;95.80;;;;;;4848102;29;20884;-91
2021/09/21 08:59:55;;;;;;;7.63;7.03;;;16.60;95.70;;;;;;4841033;29;20533;-90
2021/09/21 09:02:39;;;;;;;7.50;6.90;;;16.60;95.00;;;;;;4845836;29;20558;-92
2021/09/21 09:05:11;;;;;;;7.00;6.40;;;16.80;96.70;;;;;;4847996;29;20436;-92
2021/09/21 09:07:54;;;;;;;7.10;6.50;;;16.90;96.20;;;;;;4845500;29;20489;-91
2021/09/21 09:10:25;;;;;;;6.63;6.13;;;17.00;96.30;;;;;;4848909;29;20452;-92
2021/09/21 09:13:03;;;;;;;6.60;6.00;;;17.20;95.40;;;;;;4848755;29;20455;-92
2021/09/21 09:15:28;;;;;;;7.07;6.47;;;17.30;95.70;;;;;;4846914;29;20485;-93
2021/09/21 09:18:01;;;;;;;7.90;7.03;;;17.70;96.80;;;;;;4849035;29;20555;-93
2021/09/21 09:20:44;;;;;;;7.63;6.93;;;17.90;94.60;;;;;;4844167;29;20201;-91
2021/09/21 09:23:14;;;;;;;7.90;7.30;;;18.20;94.50;;;;;;4843487;29;20450;-93
2021/09/21 09:25:54;;;;;;;7.23;6.63;;;18.20;94.90;;;;;;4850063;29;20549;-94
2021/09/21 09:28:26;;;;;;;6.83;6.33;;;18.50;94.80;;;;;;4865803;29;21291;-91
2021/09/21 09:30:56;;;;;;;6.83;6.23;;;18.70;93.30;;;;;;4857764;29;20471;-91
2021/09/21 09:33:22;;;;;;;7.50;6.90;;;18.60;93.50;;;;;;4850839;29;20450;-94
2021/09/21 09:35:50;;;;;;;7.67;6.97;;;18.10;94.10;;;;;;4846889;29;20964;-90
2021/09/21 09:38:39;;;;;;;7.83;7.13;;;17.60;93.50;;;;;;4842473;29;20447;-93
2021/09/21 09:41:05;;;;;;;7.77;7.17;;;16.90;94.10;;;;;;4849864;29;20459;-93
2021/09/21 09:43:31;;;;;;;7.07;6.47;;;16.70;95.20;;;;;;4848538;29;20514;-92
2021/09/21 09:45:59;;;;;;;7.63;6.17;;;17.00;95.90;;;;;;4845944;29;21068;-94
2021/09/21 09:48:26;;;;;;;6.77;6.20;;;17.80;96.10;;;;;;4847598;29;20497;-91
2021/09/21 09:50:56;;;;;;;6.33;5.73;;;18.60;94.70;;;;;;4845011;29;20481;-91
2021/09/21 09:53:23;;;;;;;7.20;5.73;;;18.80;93.30;;;;;;4851443;29;20474;-93
2021/09/21 09:55:54;;;;;;;6.73;6.03;;;18.70;92.00;;;;;;4846164;29;20465;-93
2021/09/21 09:58:27;;;;;;;8.17;6.70;;;18.20;92.70;;;;;;4844970;29;20447;-93
2021/09/21 10:01:03;;;;;;;7.30;6.60;;;18.00;93.00;;;;;;4845668;29;20546;-93
2021/09/21 10:03:30;;;;;;;7.23;6.60;;;17.50;93.50;;;;;;4847535;29;20490;-95
2021/09/21 10:05:59;;;;;;;6.40;5.90;;;17.70;94.00;;;;;;4848503;29;20463;-94
2021/09/21 10:08:26;;;;;;;7.00;6.40;;;18.20;93.80;;;;;;4843341;29;20522;-93
2021/09/21 10:10:54;;;;;;;7.27;6.67;;;18.60;94.30;;;;;;4847271;29;20461;-92
2021/09/21 10:13:20;;;;;;;7.70;7.00;;;18.50;93.10;;;;;;4850690;29;20460;-93
2021/09/21 10:15:49;;;;;;;7.50;6.90;;;18.60;94.50;;;;;;4847150;29;20474;-93
2021/09/21 10:18:23;;;;;;;7.50;6.80;;;18.60;93.10;;;;;;4837653;29;21041;-91
2021/09/21 10:21:03;;;;;;;6.73;6.23;;;19.00;91.60;;;;;;4847116;29;20993;-93
2021/09/21 10:23:51;;;;;;;6.23;5.73;;;18.90;92.30;;;;;;4828547;29;21456;-91
2021/09/21 10:26:23;;;;;;;6.83;6.33;;;19.40;90.60;;;;;;4844839;29;20454;-91
2021/09/21 10:28:50;;;;;;;6.97;6.37;;;19.30;92.60;;;;;;4849064;29;20682;-90
2021/09/21 10:31:21;;;;;;;7.50;6.90;;;19.70;90.30;;;;;;4845107;29;20439;-92
2021/09/21 10:33:47;;;;;;;6.70;6.20;;;19.00;91.10;;;;;;4846070;29;20463;-93
2021/09/21 10:36:32;;;;;;;7.27;6.57;;;19.00;91.10;;;;;;4844264;29;20866;-90
2021/09/21 10:39:10;;;;;;;7.77;6.97;;;19.20;91.80;;;;;;4848562;29;20454;-91
2021/09/21 10:41:49;;;;;;;6.70;6.20;;;19.20;91.20;;;;;;4842254;29;20459;-92
2021/09/21 10:44:31;;;;;;;7.43;6.93;;;19.10;91.80;;;;;;4847073;29;20467;-94
2021/09/21 10:47:03;;;;;;;7.63;6.93;;;19.60;92.00;;;;;;4848467;29;20498;-91
2021/09/21 10:49:41;;;;;;;6.90;6.30;;;19.70;91.10;;;;;;4845190;29;20447;-91
2021/09/21 10:52:12;;;;;;;7.10;6.50;;;19.90;90.40;;;;;;4844928;29;20518;-92
2021/09/21 10:54:57;;;;;;;7.60;6.90;;;19.90;90.30;;;;;;4859157;29;20444;-89
2021/09/21 10:57:33;;;;;;;7.23;6.73;;;19.30;89.10;;;;;;4841562;29;20451;-94
2021/09/21 11:00:04;;;;;;;7.60;7.00;;;18.60;90.90;;;;;;4857458;29;20467;-91
2021/09/21 11:02:56;;;;;;;6.97;6.37;;;18.40;91.20;;;;;;4846780;29;20478;-92
2021/09/21 11:05:27;;;;;;;6.93;6.37;;;18.40;91.20;;;;;;4845271;29;20477;-92
2021/09/21 11:07:58;;;;;;;6.97;6.37;;;19.00;91.40;;;;;;4846008;29;20487;-94
2021/09/21 11:10:30;;;;;;;7.60;6.97;;;18.60;91.40;;;;;;4851813;29;20535;-94
2021/09/21 11:12:57;;;;;;;7.00;6.50;;;18.70;90.50;;;;;;4845822;29;21052;-94
2021/09/21 11:15:30;;;;;;;6.80;6.10;;;19.60;91.00;;;;;;4847754;29;20443;-93
2021/09/21 11:18:21;;;;;;;7.07;6.27;;;20.40;89.90;;;;;;4860254;29;20457;-95
2021/09/21 11:21:05;;;;;;;7.20;6.70;;;19.60;88.10;;;;;;4851317;29;20467;-94
2021/09/21 11:23:43;;;;;;;6.20;5.70;;;19.40;88.90;;;;;;4851012;29;20567;-94
2021/09/21 11:26:12;;;;;;;6.50;6.00;;;18.60;90.00;;;;;;4843861;29;20455;-91
2021/09/21 11:28:54;;;;;;;7.33;6.60;;;18.50;91.30;;;;;;4846352;29;22083;-95
2021/09/21 11:31:26;;;;;;;7.63;6.83;;;19.10;91.20;;;;;;4849205;29;20458;-93
2021/09/21 11:33:58;;;;;;;8.10;7.40;;;19.20;90.90;;;;;;4860144;29;20468;-91
2021/09/21 11:36:33;;;;;;;7.53;6.93;;;19.10;90.40;;;;;;4843427;29;20462;-92
2021/09/21 11:38:59;;;;;;;8.13;7.40;;;19.40;90.90;;;;;;4859762;29;20467;-91
2021/09/21 11:41:25;;;;;;;7.40;6.80;;;20.40;88.70;;;;;;4847367;29;20459;-94
2021/09/21 11:43:56;;;;;;;7.03;6.43;;;20.60;85.50;;;;;;4847116;29;20525;-92
2021/09/21 11:46:30;;;;;;;7.63;7.03;;;19.10;87.80;;;;;;4847460;29;20222;-95
2021/09/21 11:49:07;;;;;;;7.43;6.73;;;18.70;90.70;;;;;;4849693;29;20879;-95
2021/09/21 11:51:35;;;;;;;8.10;7.40;;;18.10;91.00;;;;;;4848931;29;20462;-94
2021/09/21 11:54:06;;;;;;;8.73;8.03;;;17.90;91.40;;;;;;4847749;29;20459;-92
2021/09/21 11:56:41;;;;;;;7.57;6.97;;;18.40;92.30;;;;;;4850820;29;20471;-95
2021/09/21 11:59:17;;;;;;;7.27;6.67;;;18.40;91.00;;;;;;4848011;29;20475;-94
2021/09/21 12:01:53;;;;;;;7.57;6.90;;;18.60;91.60;;;;;;4846341;29;20451;-96
2021/09/21 12:04:18;;;;;;;7.63;6.93;;;19.40;91.50;;;;;;4857820;29;20472;-93
2021/09/21 12:06:48;;;;;;;8.30;7.50;;;20.10;88.20;;;;;;4843140;29;20551;-92
2021/09/21 12:09:19;;;;;;;7.87;7.17;;;20.00;88.80;;;;;;4846184;29;20210;-93
2021/09/21 12:11:48;;;;;;;9.10;7.30;;;18.90;87.70;;;;;;4843157;29;20638;-94
2021/09/21 12:14:16;;;;;;;8.50;7.70;;;18.40;89.00;;;;;;4851060;29;20463;-94
2021/09/21 12:16:49;;;;;;;10.23;7.70;;;18.20;90.90;;;;;;4841641;29;20436;-93
2021/09/21 12:19:23;;;;;;;8.67;7.87;;;18.70;91.60;;;;;;4848714;29;20821;-93
2021/09/21 12:21:48;;;;;;;8.17;7.37;;;19.40;91.30;;;;;;4847544;29;20474;-93
2021/09/21 12:24:14;;;;;;;8.40;7.60;;;20.10;90.00;;;;;;4843259;29;20463;-95
2021/09/21 12:26:40;;;;;;;8.90;8.00;;;19.40;88.00;;;;;;4867809;29;20194;-93
2021/09/21 12:29:08;;;;;;;8.50;7.70;;;19.10;90.30;;;;;;4857256;29;20206;-91
2021/09/21 12:31:36;;;;;;;9.77;8.87;;;19.30;90.40;;;;;;4852312;29;20198;-92
2021/09/21 12:34:20;;;;;;;9.50;8.60;;;18.90;90.00;;;;;;4852096;29;20458;-94
2021/09/21 12:36:52;;;;;;;8.83;8.03;;;18.70;90.20;;;;;;4847080;29;20535;-94
2021/09/21 12:39:19;;;;;;;8.30;7.60;;;18.10;90.50;;;;;;4847482;29;20459;-93
2021/09/21 12:41:48;;;;;;;8.43;7.60;;;18.40;92.10;;;;;;4849993;29;20545;-96
2021/09/21 12:44:15;;;;;;;7.30;6.80;;;19.40;91.50;;;;;;4846155;29;20526;-93
2021/09/21 12:46:46;;;;;;;10.00;8.73;;;19.70;90.80;;;;;;4848353;29;20487;-93
2021/09/21 12:49:16;;;;;;;9.03;8.13;;;20.20;90.80;;;;;;4847077;29;20845;-94
2021/09/21 12:51:51;;;;;;;8.67;7.77;;;21.00;89.70;;;;;;4846768;29;20510;-93
2021/09/21 12:54:19;;;;;;;8.60;7.80;;;21.60;86.70;;;;;;4847515;29;21000;-94
2021/09/21 12:56:54;;;;;;;9.50;8.20;;;21.30;84.10;;;;;;4843989;29;20447;-94
2021/09/21 12:59:22;;;;;;;7.57;6.97;;;21.30;84.30;;;;;;4847037;29;20463;-94
2021/09/21 13:01:48;;;;;;;8.73;7.83;;;20.90;86.80;;;;;;4849129;29;20837;-94
2021/09/21 13:04:14;;;;;;;8.63;7.90;;;21.00;87.60;;;;;;4849344;29;20504;-92
2021/09/21 13:06:45;;;;;;;8.03;7.43;;;20.70;87.30;;;;;;4844695;29;20456;-94